createdAt,value
2022-10-20T00:03:18.474Z,101481.56
2022-10-20T00:08:41.707Z,101475.41
2022-10-20T00:14:04.492Z,101475.41
2022-10-20T00:19:26.281Z,101480.34
2022-10-20T00:24:47.949Z,101470.31
2022-10-20T00:30:10.022Z,101471.44
2022-10-20T00:35:33.624Z,101459.47
2022-10-20T00:40:55.480Z,101455.00
2022-10-20T00:46:23.813Z,101431.13
2022-10-20T00:51:45.519Z,101431.38
2022-10-20T00:57:07.334Z,101414.97
2022-10-20T01:02:29.068Z,101410.25
2022-10-20T01:07:50.819Z,101418.81
2022-10-20T01:13:27.404Z,101414.09
2022-10-20T01:19:22.755Z,101406.03
2022-10-20T01:25:18.208Z,101406.03
2022-10-20T01:30:46.492Z,101392.38
2022-10-20T01:36:17.733Z,101379.59
2022-10-20T01:42:11.560Z,101367.66
2022-10-20T01:47:35.588Z,101349.59
2022-10-20T01:52:58.196Z,101345.94
2022-10-20T01:58:48.999Z,101348.50
2022-10-20T02:04:11.862Z,101334.03
2022-10-20T02:09:41.186Z,101328.22
2022-10-20T02:15:05.976Z,101310.97
2022-10-20T02:20:30.760Z,101294.56
2022-10-20T02:25:56.952Z,101279.84
2022-10-20T02:31:19.430Z,101274.31
2022-10-20T02:36:43.309Z,101263.19
2022-10-20T02:42:04.941Z,101264.53
2022-10-20T02:47:26.583Z,101252.63
2022-10-20T02:52:48.298Z,101247.06
2022-10-20T02:58:10.349Z,101235.13
2022-10-20T03:03:31.994Z,101247.28
2022-10-20T03:08:53.754Z,101238.16
2022-10-20T03:14:15.496Z,101240.06
2022-10-20T03:19:37.344Z,101209.53
2022-10-20T03:24:59.118Z,101207.00
2022-10-20T03:30:20.789Z,101211.72
2022-10-20T03:35:42.461Z,101208.94
2022-10-20T03:41:04.206Z,101199.75
2022-10-20T03:46:25.979Z,101194.47
2022-10-20T03:51:47.616Z,101177.81
2022-10-20T03:57:09.336Z,101174.19
2022-10-20T04:02:37.938Z,101173.38
2022-10-20T04:07:59.772Z,101184.47
2022-10-20T04:13:21.420Z,101197.47
2022-10-20T04:18:43.166Z,101192.78
2022-10-20T04:24:05.704Z,101191.09
2022-10-20T04:29:27.389Z,101216.06
2022-10-20T04:34:49.042Z,101191.09
2022-10-20T04:40:11.201Z,101160.84
2022-10-20T04:45:32.895Z,101163.63
2022-10-20T04:51:02.108Z,101149.50
2022-10-20T04:56:23.993Z,101158.91
2022-10-20T05:01:45.754Z,101148.88
2022-10-20T05:07:07.532Z,101135.03
2022-10-20T05:12:29.254Z,101141.66
2022-10-20T05:17:50.944Z,101142.25
2022-10-20T05:23:12.661Z,101144.41
2022-10-20T05:28:34.367Z,101139.22
2022-10-20T05:33:57.212Z,101120.66
2022-10-20T05:39:18.841Z,101109.56
2022-10-20T05:44:40.490Z,101124.28
2022-10-20T05:50:02.540Z,101123.44
2022-10-20T05:55:24.446Z,101117.28
2022-10-20T06:00:52.821Z,101097.88
2022-10-20T06:06:14.671Z,101096.19
2022-10-20T06:11:39.544Z,101102.81
2022-10-20T06:17:01.556Z,101081.72
2022-10-20T06:22:23.189Z,101085.38
2022-10-20T06:27:44.850Z,101086.44
2022-10-20T06:33:06.569Z,101074.50
2022-10-20T06:38:28.907Z,101091.13
2022-10-20T06:43:50.674Z,101096.94
2022-10-20T06:49:12.749Z,101099.44
2022-10-20T06:54:34.376Z,101103.31
2022-10-20T06:59:56.020Z,101111.63
2022-10-20T07:05:17.737Z,101103.31
2022-10-20T07:10:39.398Z,101095.00
2022-10-20T07:16:02.039Z,101097.75
2022-10-20T07:21:32.513Z,101102.59
2022-10-20T07:26:57.623Z,101110.06
2022-10-20T07:32:19.282Z,101109.47
2022-10-20T07:37:41.044Z,101102.22
2022-10-20T07:43:02.686Z,101109.97
2022-10-20T07:48:24.363Z,101119.38
2022-10-20T07:53:46.129Z,101119.38
2022-10-20T07:59:09.834Z,101129.59
2022-10-20T08:04:31.872Z,101130.47
2022-10-20T08:09:53.697Z,101114.06
2022-10-20T08:15:19.780Z,101102.13
2022-10-20T08:20:41.617Z,101088.28
2022-10-20T08:26:05.044Z,101089.97
2022-10-20T08:31:29.636Z,101101.06
2022-10-20T08:36:51.297Z,101108.28
2022-10-20T08:42:13.260Z,101094.41
2022-10-20T08:47:38.520Z,101093.34
2022-10-20T08:53:01.056Z,101087.78
2022-10-20T08:58:24.904Z,101106.09
2022-10-20T09:03:56.733Z,101071.38
2022-10-20T09:09:21.300Z,101081.63
2022-10-20T09:14:43.000Z,101123.22
2022-10-20T09:20:12.133Z,101089.97
2022-10-20T09:25:35.265Z,101091.03
2022-10-20T09:30:57.479Z,101099.38
2022-10-20T09:36:20.785Z,101098.50
2022-10-20T09:41:42.950Z,101081.03
2022-10-20T09:47:04.730Z,101081.03
2022-10-20T09:52:32.024Z,101071.03
2022-10-20T09:57:56.035Z,101057.16
2022-10-20T10:03:23.296Z,101031.13
2022-10-20T10:08:46.603Z,101029.44
2022-10-20T10:14:22.247Z,101025.59
2022-10-20T10:19:52.481Z,101027.75
2022-10-20T10:25:27.366Z,101027.75
2022-10-20T10:30:50.163Z,101016.94
2022-10-20T10:36:35.872Z,101007.75
2022-10-20T10:42:38.579Z,100990.63
2022-10-20T10:48:31.507Z,100982.06
2022-10-20T10:54:01.890Z,100985.91
2022-10-20T10:59:30.925Z,100987.38
2022-10-20T11:04:58.212Z,100989.28
2022-10-20T11:10:47.562Z,100998.47
2022-10-20T11:16:30.912Z,101003.41
2022-10-20T11:21:58.277Z,101013.63
2022-10-20T11:27:28.256Z,101009.78
2022-10-20T11:33:26.963Z,101021.72
2022-10-20T11:38:53.886Z,101006.25
2022-10-20T11:44:27.722Z,101001.31
2022-10-20T11:49:49.611Z,100998.53
2022-10-20T11:55:13.798Z,100991.69
2022-10-20T12:00:47.465Z,100983.94
2022-10-20T12:06:19.807Z,100985.13
2022-10-20T12:12:00.173Z,100973.78
2022-10-20T12:17:42.199Z,100963.56
2022-10-20T12:23:04.422Z,100957.16
2022-10-20T12:28:27.971Z,100948.84
2022-10-20T12:33:49.776Z,100948.84
2022-10-20T12:39:22.526Z,100935.56
2022-10-20T12:44:45.905Z,100928.34
2022-10-20T12:50:43.783Z,100922.28
2022-10-20T12:56:08.352Z,100915.06
2022-10-20T13:01:30.066Z,100913.16
2022-10-20T13:06:53.852Z,100913.38
2022-10-20T13:12:26.917Z,100914.56
2022-10-20T13:17:57.778Z,100901.78
2022-10-20T13:23:34.466Z,100892.38
2022-10-20T13:28:59.810Z,100884.31
2022-10-20T13:34:52.192Z,100879.59
2022-10-20T13:40:23.927Z,100873.47
2022-10-20T13:46:10.190Z,100877.91
2022-10-20T13:51:37.604Z,100867.31
2022-10-20T13:57:00.154Z,100872.88
2022-10-20T14:02:32.007Z,100871.53
2022-10-20T14:07:53.865Z,100867.91
2022-10-20T14:13:22.013Z,100862.97
2022-10-20T14:18:43.773Z,100855.72
2022-10-20T14:24:06.943Z,100849.09
2022-10-20T14:29:31.108Z,100851.88
2022-10-20T14:35:00.486Z,100847.16
2022-10-20T14:40:29.055Z,100852.97
2022-10-20T14:45:56.845Z,100850.19
2022-10-20T14:51:31.296Z,100836.91
2022-10-20T14:56:59.161Z,100825.22
2022-10-20T15:02:23.780Z,100833.53
2022-10-20T15:07:45.500Z,100825.22
2022-10-20T15:13:23.601Z,100827.72
2022-10-20T15:18:48.269Z,100833.53
2022-10-20T15:24:09.894Z,100828.00
2022-10-20T15:29:32.456Z,100829.09
2022-10-20T15:34:54.140Z,100820.25
2022-10-20T15:40:16.051Z,100815.31
2022-10-20T15:45:40.691Z,100812.00
2022-10-20T15:51:02.889Z,100813.19
2022-10-20T15:56:24.823Z,100808.81
2022-10-20T16:01:46.543Z,100800.81
2022-10-20T16:07:08.153Z,100791.13
2022-10-20T16:12:29.811Z,100796.19
2022-10-20T16:17:51.953Z,100799.56
2022-10-20T16:23:13.593Z,100802.06
2022-10-20T16:28:36.225Z,100796.78
2022-10-20T16:34:00.701Z,100800.06
2022-10-20T16:39:22.437Z,100790.00
2022-10-20T16:44:45.571Z,100793.31
2022-10-20T16:50:07.831Z,100783.09
2022-10-20T16:55:29.479Z,100776.44
2022-10-20T17:01:01.651Z,100778.25
2022-10-20T17:06:25.554Z,100767.78
2022-10-20T17:11:47.666Z,100774.25
2022-10-20T17:17:09.353Z,100768.72
2022-10-20T17:22:31.013Z,100767.03
2022-10-20T17:27:52.745Z,100760.66
2022-10-20T17:33:14.518Z,100759.22
2022-10-20T17:38:36.296Z,100762.00
2022-10-20T17:44:02.712Z,100765.03
2022-10-20T17:49:24.362Z,100764.72
2022-10-20T17:54:46.014Z,100752.44
2022-10-20T18:00:12.892Z,100750.78
2022-10-20T18:05:38.292Z,100763.47
2022-10-20T18:11:00.020Z,100762.88
2022-10-20T18:16:21.771Z,100761.22
2022-10-20T18:21:43.833Z,100771.84
2022-10-20T18:27:06.111Z,100778.59
2022-10-20T18:32:27.770Z,100777.69
2022-10-20T18:37:52.677Z,100779.53
2022-10-20T18:43:14.379Z,100779.28
2022-10-20T18:48:38.253Z,100768.63
2022-10-20T18:54:02.004Z,100760.59
2022-10-20T18:59:23.818Z,100773.13
2022-10-20T19:04:45.485Z,100763.09
2022-10-20T19:10:07.386Z,100751.97
2022-10-20T19:15:29.032Z,100742.75
2022-10-20T19:21:01.960Z,100729.66
2022-10-20T19:26:29.445Z,100715.72
2022-10-20T19:31:57.299Z,100696.22
2022-10-20T19:37:18.997Z,100679.78
2022-10-20T19:42:40.743Z,100671.91
2022-10-20T19:48:03.036Z,100688.88
2022-10-20T19:53:24.673Z,100676.13
2022-10-20T19:58:46.862Z,100664.19
2022-10-20T20:04:08.683Z,100673.41
2022-10-20T20:09:30.898Z,100676.22
2022-10-20T20:14:52.903Z,100685.97
2022-10-20T20:20:14.784Z,100685.44
2022-10-20T20:25:40.797Z,100689.56
2022-10-20T20:31:08.163Z,100687.31
2022-10-20T20:36:30.300Z,100695.59
2022-10-20T20:41:51.994Z,100691.63
2022-10-20T20:47:13.633Z,100687.66
2022-10-20T20:52:35.309Z,100697.91
2022-10-20T20:57:56.961Z,100687.25
2022-10-20T21:03:19.478Z,100702.50
2022-10-20T21:08:43.351Z,100713.56
2022-10-20T21:14:05.109Z,100709.06
2022-10-20T21:19:26.845Z,100702.34
2022-10-20T21:24:48.478Z,100704.00
2022-10-20T21:30:10.457Z,100694.22
2022-10-20T21:35:32.090Z,100692.25
2022-10-20T21:40:53.735Z,100693.63
2022-10-20T21:46:24.179Z,100681.09
2022-10-20T21:51:49.994Z,100674.13
2022-10-20T21:57:11.751Z,100669.94
2022-10-20T22:02:33.379Z,100674.91
2022-10-20T22:07:55.039Z,100669.63
2022-10-20T22:13:16.725Z,100664.31
2022-10-20T22:18:38.438Z,100666.56
2022-10-20T22:24:00.668Z,100675.13
2022-10-20T22:29:23.268Z,100672.63
2022-10-20T22:34:44.893Z,100675.63
2022-10-20T22:40:07.317Z,100676.19
2022-10-20T22:45:29.041Z,100679.47
2022-10-20T22:50:50.708Z,100684.22
2022-10-20T22:56:15.958Z,100678.66
2022-10-20T23:01:37.717Z,100677.50
2022-10-20T23:12:41.633Z,100680.28
2022-10-20T23:18:03.359Z,100685.50
2022-10-20T23:23:25.344Z,100690.19
2022-10-20T23:28:48.785Z,100675.72
2022-10-20T23:34:10.501Z,100682.38
2022-10-20T23:39:32.206Z,100681.53
2022-10-20T23:44:53.857Z,100670.72
2022-10-20T23:50:16.803Z,100672.91
2022-10-20T23:55:38.578Z,100678.47
